sensor_id;sensor_type;location;lat;lon;timestamp;P1;durP1;ratioP1;P2;durP2;ratioP2
18720;SDS011;9489;50.948;3.114;2023-04-06T00:00:32;31.27;;;25.45;;
18720;SDS011;9489;50.948;3.114;2023-04-06T00:02:58;33.20;;;25.48;;
18720;SDS011;9489;50.948;3.114;2023-04-06T00:05:24;35.00;;;27.85;;
18720;SDS011;9489;50.948;3.114;2023-04-06T00:07:49;35.28;;;25.23;;
18720;SDS011;9489;50.948;3.114;2023-04-06T00:10:15;40.58;;;26.73;;
18720;SDS011;9489;50.948;3.114;2023-04-06T00:12:41;34.33;;;26.27;;
18720;SDS011;9489;50.948;3.114;2023-04-06T00:15:07;33.45;;;25.33;;
18720;SDS011;9489;50.948;3.114;2023-04-06T00:17:33;36.55;;;25.80;;
18720;SDS011;9489;50.948;3.114;2023-04-06T00:19:59;34.53;;;27.65;;
18720;SDS011;9489;50.948;3.114;2023-04-06T00:22:24;32.33;;;26.65;;
18720;SDS011;9489;50.948;3.114;2023-04-06T00:24:50;31.17;;;25.58;;
18720;SDS011;9489;50.948;3.114;2023-04-06T00:27:15;34.25;;;25.08;;
18720;SDS011;9489;50.948;3.114;2023-04-06T00:29:43;33.15;;;26.65;;
18720;SDS011;9489;50.948;3.114;2023-04-06T00:32:09;34.25;;;25.13;;
18720;SDS011;9489;50.948;3.114;2023-04-06T00:34:34;33.13;;;26.15;;
18720;SDS011;9489;50.948;3.114;2023-04-06T00:37:00;34.78;;;27.15;;
18720;SDS011;9489;50.948;3.114;2023-04-06T00:39:26;30.92;;;24.88;;
18720;SDS011;9489;50.948;3.114;2023-04-06T00:41:51;33.63;;;26.30;;
18720;SDS011;9489;50.948;3.114;2023-04-06T00:44:18;31.35;;;25.35;;
18720;SDS011;9489;50.948;3.114;2023-04-06T00:46:44;34.97;;;27.35;;
18720;SDS011;9489;50.948;3.114;2023-04-06T00:49:10;34.80;;;26.88;;
18720;SDS011;9489;50.948;3.114;2023-04-06T00:51:36;33.42;;;25.92;;
18720;SDS011;9489;50.948;3.114;2023-04-06T00:54:01;30.98;;;25.00;;
18720;SDS011;9489;50.948;3.114;2023-04-06T00:56:27;28.63;;;22.98;;
18720;SDS011;9489;50.948;3.114;2023-04-06T00:58:53;30.88;;;24.90;;
18720;SDS011;9489;50.948;3.114;2023-04-06T01:01:18;32.28;;;25.65;;
18720;SDS011;9489;50.948;3.114;2023-04-06T01:03:44;32.33;;;24.92;;
18720;SDS011;9489;50.948;3.114;2023-04-06T01:06:13;31.67;;;24.38;;
18720;SDS011;9489;50.948;3.114;2023-04-06T01:08:39;27.98;;;24.48;;
18720;SDS011;9489;50.948;3.114;2023-04-06T01:11:05;28.88;;;24.02;;
18720;SDS011;9489;50.948;3.114;2023-04-06T01:13:30;33.00;;;23.25;;
18720;SDS011;9489;50.948;3.114;2023-04-06T01:15:56;27.80;;;23.63;;
18720;SDS011;9489;50.948;3.114;2023-04-06T01:18:26;33.63;;;24.25;;
18720;SDS011;9489;50.948;3.114;2023-04-06T01:20:52;29.52;;;24.73;;
18720;SDS011;9489;50.948;3.114;2023-04-06T01:23:17;29.70;;;24.17;;
18720;SDS011;9489;50.948;3.114;2023-04-06T01:25:43;32.17;;;24.40;;
18720;SDS011;9489;50.948;3.114;2023-04-06T01:28:08;30.27;;;23.58;;
18720;SDS011;9489;50.948;3.114;2023-04-06T01:30:34;30.83;;;24.60;;
18720;SDS011;9489;50.948;3.114;2023-04-06T01:33:00;27.77;;;23.00;;
18720;SDS011;9489;50.948;3.114;2023-04-06T01:35:26;27.92;;;22.63;;
18720;SDS011;9489;50.948;3.114;2023-04-06T01:37:52;28.85;;;24.35;;
18720;SDS011;9489;50.948;3.114;2023-04-06T01:40:17;33.35;;;25.13;;
18720;SDS011;9489;50.948;3.114;2023-04-06T01:42:43;32.38;;;25.27;;
18720;SDS011;9489;50.948;3.114;2023-04-06T01:45:09;31.90;;;25.00;;
18720;SDS011;9489;50.948;3.114;2023-04-06T01:47:34;27.55;;;23.90;;
18720;SDS011;9489;50.948;3.114;2023-04-06T01:50:00;30.83;;;24.35;;
18720;SDS011;9489;50.948;3.114;2023-04-06T01:52:27;30.00;;;24.88;;
18720;SDS011;9489;50.948;3.114;2023-04-06T01:54:53;26.80;;;23.05;;
18720;SDS011;9489;50.948;3.114;2023-04-06T01:57:19;30.00;;;24.90;;
18720;SDS011;9489;50.948;3.114;2023-04-06T01:59:45;27.33;;;23.80;;
18720;SDS011;9489;50.948;3.114;2023-04-06T02:02:10;27.83;;;23.88;;
18720;SDS011;9489;50.948;3.114;2023-04-06T02:04:37;30.45;;;24.15;;
18720;SDS011;9489;50.948;3.114;2023-04-06T02:07:03;28.13;;;24.17;;
18720;SDS011;9489;50.948;3.114;2023-04-06T02:09:29;27.88;;;23.73;;
18720;SDS011;9489;50.948;3.114;2023-04-06T02:11:54;26.27;;;23.08;;
18720;SDS011;9489;50.948;3.114;2023-04-06T02:14:20;27.73;;;22.92;;
18720;SDS011;9489;50.948;3.114;2023-04-06T02:16:46;27.40;;;23.20;;
18720;SDS011;9489;50.948;3.114;2023-04-06T02:19:12;26.75;;;22.27;;
18720;SDS011;9489;50.948;3.114;2023-04-06T02:21:37;26.67;;;22.05;;
18720;SDS011;9489;50.948;3.114;2023-04-06T02:24:03;25.75;;;22.95;;
18720;SDS011;9489;50.948;3.114;2023-04-06T02:26:28;24.15;;;21.55;;
18720;SDS011;9489;50.948;3.114;2023-04-06T02:28:54;26.05;;;22.17;;
18720;SDS011;9489;50.948;3.114;2023-04-06T02:31:20;28.35;;;22.00;;
18720;SDS011;9489;50.948;3.114;2023-04-06T02:33:45;22.63;;;20.38;;
18720;SDS011;9489;50.948;3.114;2023-04-06T02:36:11;26.35;;;22.52;;
18720;SDS011;9489;50.948;3.114;2023-04-06T02:38:36;26.58;;;22.23;;
18720;SDS011;9489;50.948;3.114;2023-04-06T02:41:02;26.38;;;22.80;;
18720;SDS011;9489;50.948;3.114;2023-04-06T02:43:28;26.27;;;23.02;;
18720;SDS011;9489;50.948;3.114;2023-04-06T02:45:53;28.35;;;23.35;;
18720;SDS011;9489;50.948;3.114;2023-04-06T02:48:19;29.15;;;22.88;;
18720;SDS011;9489;50.948;3.114;2023-04-06T02:50:45;29.95;;;23.30;;
18720;SDS011;9489;50.948;3.114;2023-04-06T02:53:10;29.58;;;24.10;;
18720;SDS011;9489;50.948;3.114;2023-04-06T02:55:36;28.20;;;23.63;;
18720;SDS011;9489;50.948;3.114;2023-04-06T02:58:01;28.17;;;24.23;;
18720;SDS011;9489;50.948;3.114;2023-04-06T03:00:27;26.55;;;23.52;;
18720;SDS011;9489;50.948;3.114;2023-04-06T03:02:52;28.67;;;24.10;;
18720;SDS011;9489;50.948;3.114;2023-04-06T03:05:18;28.17;;;24.42;;
18720;SDS011;9489;50.948;3.114;2023-04-06T03:07:44;29.02;;;24.95;;
18720;SDS011;9489;50.948;3.114;2023-04-06T03:10:09;33.47;;;25.27;;
18720;SDS011;9489;50.948;3.114;2023-04-06T03:12:35;29.48;;;25.75;;
18720;SDS011;9489;50.948;3.114;2023-04-06T03:15:01;30.40;;;27.10;;
18720;SDS011;9489;50.948;3.114;2023-04-06T03:17:26;30.50;;;26.45;;
18720;SDS011;9489;50.948;3.114;2023-04-06T03:19:52;29.13;;;25.95;;
18720;SDS011;9489;50.948;3.114;2023-04-06T03:22:18;29.58;;;25.63;;
18720;SDS011;9489;50.948;3.114;2023-04-06T03:24:44;27.20;;;24.02;;
18720;SDS011;9489;50.948;3.114;2023-04-06T03:27:10;27.23;;;24.33;;
18720;SDS011;9489;50.948;3.114;2023-04-06T03:29:35;28.35;;;24.35;;
18720;SDS011;9489;50.948;3.114;2023-04-06T03:32:01;27.45;;;24.50;;
18720;SDS011;9489;50.948;3.114;2023-04-06T03:34:26;29.90;;;25.15;;
18720;SDS011;9489;50.948;3.114;2023-04-06T03:36:52;28.70;;;25.10;;
18720;SDS011;9489;50.948;3.114;2023-04-06T03:39:18;28.45;;;25.13;;
18720;SDS011;9489;50.948;3.114;2023-04-06T03:41:43;29.33;;;24.30;;
18720;SDS011;9489;50.948;3.114;2023-04-06T03:44:09;29.42;;;26.02;;
18720;SDS011;9489;50.948;3.114;2023-04-06T03:46:35;27.65;;;24.67;;
18720;SDS011;9489;50.948;3.114;2023-04-06T03:49:01;29.65;;;25.02;;
18720;SDS011;9489;50.948;3.114;2023-04-06T03:51:27;26.95;;;24.05;;
18720;SDS011;9489;50.948;3.114;2023-04-06T03:53:53;28.40;;;23.65;;
18720;SDS011;9489;50.948;3.114;2023-04-06T03:56:18;24.98;;;22.27;;
18720;SDS011;9489;50.948;3.114;2023-04-06T03:58:44;27.27;;;23.25;;
18720;SDS011;9489;50.948;3.114;2023-04-06T04:01:10;27.17;;;22.83;;
18720;SDS011;9489;50.948;3.114;2023-04-06T04:03:36;29.08;;;24.35;;
18720;SDS011;9489;50.948;3.114;2023-04-06T04:06:02;26.35;;;22.48;;
18720;SDS011;9489;50.948;3.114;2023-04-06T04:08:28;25.80;;;22.98;;
18720;SDS011;9489;50.948;3.114;2023-04-06T04:10:53;24.50;;;21.88;;
18720;SDS011;9489;50.948;3.114;2023-04-06T04:13:19;25.38;;;22.70;;
18720;SDS011;9489;50.948;3.114;2023-04-06T04:15:45;24.85;;;21.38;;
18720;SDS011;9489;50.948;3.114;2023-04-06T04:18:12;23.48;;;20.95;;
18720;SDS011;9489;50.948;3.114;2023-04-06T04:20:38;24.77;;;22.05;;
18720;SDS011;9489;50.948;3.114;2023-04-06T04:23:04;23.35;;;20.73;;
18720;SDS011;9489;50.948;3.114;2023-04-06T04:25:29;24.95;;;20.08;;
18720;SDS011;9489;50.948;3.114;2023-04-06T04:27:55;22.75;;;20.27;;
18720;SDS011;9489;50.948;3.114;2023-04-06T04:30:21;21.38;;;17.83;;
18720;SDS011;9489;50.948;3.114;2023-04-06T04:32:46;20.05;;;17.95;;
18720;SDS011;9489;50.948;3.114;2023-04-06T04:35:12;19.42;;;17.55;;
18720;SDS011;9489;50.948;3.114;2023-04-06T04:37:38;19.38;;;17.38;;
18720;SDS011;9489;50.948;3.114;2023-04-06T04:40:05;17.85;;;15.90;;
18720;SDS011;9489;50.948;3.114;2023-04-06T04:42:31;19.58;;;16.27;;
18720;SDS011;9489;50.948;3.114;2023-04-06T04:44:57;17.88;;;15.98;;
18720;SDS011;9489;50.948;3.114;2023-04-06T04:47:22;17.13;;;15.45;;
18720;SDS011;9489;50.948;3.114;2023-04-06T04:49:48;16.88;;;14.18;;
18720;SDS011;9489;50.948;3.114;2023-04-06T04:52:13;16.25;;;14.52;;
18720;SDS011;9489;50.948;3.114;2023-04-06T04:54:39;17.38;;;14.95;;
18720;SDS011;9489;50.948;3.114;2023-04-06T04:57:06;17.67;;;15.88;;
18720;SDS011;9489;50.948;3.114;2023-04-06T04:59:31;19.55;;;17.45;;
18720;SDS011;9489;50.948;3.114;2023-04-06T05:01:57;18.85;;;16.67;;
18720;SDS011;9489;50.948;3.114;2023-04-06T05:04:23;17.20;;;15.10;;
18720;SDS011;9489;50.948;3.114;2023-04-06T05:06:49;16.58;;;14.88;;
18720;SDS011;9489;50.948;3.114;2023-04-06T05:09:14;16.25;;;14.43;;
18720;SDS011;9489;50.948;3.114;2023-04-06T05:11:40;15.68;;;14.05;;
18720;SDS011;9489;50.948;3.114;2023-04-06T05:14:05;16.10;;;14.00;;
18720;SDS011;9489;50.948;3.114;2023-04-06T05:16:32;19.52;;;14.85;;
18720;SDS011;9489;50.948;3.114;2023-04-06T05:18:58;15.13;;;13.73;;
18720;SDS011;9489;50.948;3.114;2023-04-06T05:21:24;16.33;;;14.50;;
18720;SDS011;9489;50.948;3.114;2023-04-06T05:23:51;13.88;;;11.60;;
18720;SDS011;9489;50.948;3.114;2023-04-06T05:26:17;14.05;;;12.55;;
18720;SDS011;9489;50.948;3.114;2023-04-06T05:28:42;12.57;;;10.90;;
18720;SDS011;9489;50.948;3.114;2023-04-06T05:31:09;12.40;;;10.80;;
18720;SDS011;9489;50.948;3.114;2023-04-06T05:33:35;11.60;;;10.50;;
18720;SDS011;9489;50.948;3.114;2023-04-06T05:36:00;12.07;;;10.57;;
18720;SDS011;9489;50.948;3.114;2023-04-06T05:38:26;10.23;;;9.23;;
18720;SDS011;9489;50.948;3.114;2023-04-06T05:40:51;10.27;;;8.75;;
18720;SDS011;9489;50.948;3.114;2023-04-06T05:43:17;9.48;;;8.50;;
18720;SDS011;9489;50.948;3.114;2023-04-06T05:45:45;9.15;;;8.23;;
18720;SDS011;9489;50.948;3.114;2023-04-06T05:48:11;10.40;;;9.15;;
18720;SDS011;9489;50.948;3.114;2023-04-06T05:50:36;9.43;;;8.32;;
18720;SDS011;9489;50.948;3.114;2023-04-06T05:53:02;10.60;;;8.25;;
18720;SDS011;9489;50.948;3.114;2023-04-06T05:55:28;9.00;;;7.80;;
18720;SDS011;9489;50.948;3.114;2023-04-06T05:57:53;9.32;;;8.32;;
18720;SDS011;9489;50.948;3.114;2023-04-06T06:00:19;11.30;;;8.57;;
18720;SDS011;9489;50.948;3.114;2023-04-06T06:02:45;8.77;;;7.65;;
18720;SDS011;9489;50.948;3.114;2023-04-06T06:05:10;8.95;;;8.05;;
18720;SDS011;9489;50.948;3.114;2023-04-06T06:07:36;9.02;;;7.55;;
18720;SDS011;9489;50.948;3.114;2023-04-06T06:10:02;10.50;;;7.63;;
18720;SDS011;9489;50.948;3.114;2023-04-06T06:12:27;8.95;;;7.97;;
18720;SDS011;9489;50.948;3.114;2023-04-06T06:14:53;8.65;;;7.75;;
18720;SDS011;9489;50.948;3.114;2023-04-06T06:17:19;8.52;;;7.72;;
18720;SDS011;9489;50.948;3.114;2023-04-06T06:19:45;8.75;;;7.85;;
18720;SDS011;9489;50.948;3.114;2023-04-06T06:22:10;8.63;;;7.88;;
18720;SDS011;9489;50.948;3.114;2023-04-06T06:24:36;9.88;;;8.65;;
18720;SDS011;9489;50.948;3.114;2023-04-06T06:27:02;8.57;;;7.78;;
18720;SDS011;9489;50.948;3.114;2023-04-06T06:29:27;10.75;;;8.18;;
18720;SDS011;9489;50.948;3.114;2023-04-06T06:31:53;10.73;;;8.63;;
18720;SDS011;9489;50.948;3.114;2023-04-06T06:34:18;10.25;;;8.45;;
18720;SDS011;9489;50.948;3.114;2023-04-06T06:36:44;9.02;;;8.13;;
18720;SDS011;9489;50.948;3.114;2023-04-06T06:39:09;10.02;;;8.80;;
18720;SDS011;9489;50.948;3.114;2023-04-06T06:41:35;9.40;;;8.43;;
18720;SDS011;9489;50.948;3.114;2023-04-06T06:44:01;10.40;;;8.38;;
18720;SDS011;9489;50.948;3.114;2023-04-06T06:46:27;11.30;;;9.48;;
18720;SDS011;9489;50.948;3.114;2023-04-06T06:48:52;10.20;;;9.23;;
18720;SDS011;9489;50.948;3.114;2023-04-06T06:51:18;10.73;;;9.30;;
18720;SDS011;9489;50.948;3.114;2023-04-06T06:53:43;9.63;;;8.73;;
18720;SDS011;9489;50.948;3.114;2023-04-06T06:56:09;10.93;;;9.18;;
18720;SDS011;9489;50.948;3.114;2023-04-06T06:58:35;10.80;;;9.25;;
18720;SDS011;9489;50.948;3.114;2023-04-06T07:01:01;10.02;;;9.00;;
18720;SDS011;9489;50.948;3.114;2023-04-06T07:03:26;11.38;;;10.18;;
18720;SDS011;9489;50.948;3.114;2023-04-06T07:05:52;12.15;;;10.18;;
18720;SDS011;9489;50.948;3.114;2023-04-06T07:08:18;13.18;;;10.52;;
18720;SDS011;9489;50.948;3.114;2023-04-06T07:10:45;12.07;;;10.38;;
18720;SDS011;9489;50.948;3.114;2023-04-06T07:13:10;13.57;;;10.75;;
18720;SDS011;9489;50.948;3.114;2023-04-06T07:15:36;12.25;;;10.25;;
18720;SDS011;9489;50.948;3.114;2023-04-06T07:18:02;11.63;;;10.30;;
18720;SDS011;9489;50.948;3.114;2023-04-06T07:20:27;12.57;;;11.38;;
18720;SDS011;9489;50.948;3.114;2023-04-06T07:22:53;14.52;;;11.38;;
18720;SDS011;9489;50.948;3.114;2023-04-06T07:25:19;13.00;;;11.60;;
18720;SDS011;9489;50.948;3.114;2023-04-06T07:27:44;12.85;;;11.38;;
18720;SDS011;9489;50.948;3.114;2023-04-06T07:30:10;13.65;;;12.10;;
18720;SDS011;9489;50.948;3.114;2023-04-06T07:32:36;15.77;;;12.35;;
18720;SDS011;9489;50.948;3.114;2023-04-06T07:35:02;15.48;;;13.88;;
18720;SDS011;9489;50.948;3.114;2023-04-06T07:37:28;17.73;;;13.23;;
18720;SDS011;9489;50.948;3.114;2023-04-06T07:39:53;16.30;;;14.63;;
18720;SDS011;9489;50.948;3.114;2023-04-06T07:42:19;17.63;;;14.73;;
18720;SDS011;9489;50.948;3.114;2023-04-06T07:44:44;19.38;;;15.00;;
18720;SDS011;9489;50.948;3.114;2023-04-06T07:47:10;18.95;;;16.95;;
18720;SDS011;9489;50.948;3.114;2023-04-06T07:49:36;17.38;;;15.68;;
18720;SDS011;9489;50.948;3.114;2023-04-06T07:52:02;18.17;;;15.27;;
18720;SDS011;9489;50.948;3.114;2023-04-06T07:54:28;18.30;;;16.45;;
18720;SDS011;9489;50.948;3.114;2023-04-06T07:56:53;18.85;;;15.88;;
18720;SDS011;9489;50.948;3.114;2023-04-06T07:59:19;21.55;;;17.13;;
18720;SDS011;9489;50.948;3.114;2023-04-06T08:01:45;19.70;;;16.45;;
18720;SDS011;9489;50.948;3.114;2023-04-06T08:04:10;19.17;;;16.45;;
18720;SDS011;9489;50.948;3.114;2023-04-06T08:06:36;18.30;;;16.23;;
18720;SDS011;9489;50.948;3.114;2023-04-06T08:09:02;18.90;;;16.67;;
18720;SDS011;9489;50.948;3.114;2023-04-06T08:11:28;20.52;;;17.83;;
18720;SDS011;9489;50.948;3.114;2023-04-06T08:13:54;21.25;;;18.10;;
18720;SDS011;9489;50.948;3.114;2023-04-06T08:16:21;21.10;;;17.95;;
18720;SDS011;9489;50.948;3.114;2023-04-06T08:18:47;21.70;;;18.40;;
18720;SDS011;9489;50.948;3.114;2023-04-06T08:21:13;21.45;;;19.10;;
18720;SDS011;9489;50.948;3.114;2023-04-06T08:23:38;23.63;;;20.52;;
18720;SDS011;9489;50.948;3.114;2023-04-06T08:26:04;24.35;;;20.10;;
18720;SDS011;9489;50.948;3.114;2023-04-06T08:28:30;28.80;;;23.40;;
18720;SDS011;9489;50.948;3.114;2023-04-06T08:30:55;28.50;;;22.83;;
18720;SDS011;9489;50.948;3.114;2023-04-06T08:33:21;25.67;;;21.92;;
18720;SDS011;9489;50.948;3.114;2023-04-06T08:35:47;24.83;;;21.10;;
18720;SDS011;9489;50.948;3.114;2023-04-06T08:38:12;23.33;;;20.80;;
18720;SDS011;9489;50.948;3.114;2023-04-06T08:40:38;29.08;;;23.58;;
18720;SDS011;9489;50.948;3.114;2023-04-06T08:43:09;25.33;;;22.63;;
18720;SDS011;9489;50.948;3.114;2023-04-06T08:45:40;27.50;;;23.80;;
18720;SDS011;9489;50.948;3.114;2023-04-06T08:48:06;28.35;;;24.02;;
18720;SDS011;9489;50.948;3.114;2023-04-06T08:50:33;27.70;;;23.65;;
18720;SDS011;9489;50.948;3.114;2023-04-06T08:53:00;28.90;;;25.02;;
18720;SDS011;9489;50.948;3.114;2023-04-06T08:55:26;29.85;;;25.88;;
18720;SDS011;9489;50.948;3.114;2023-04-06T08:57:52;29.75;;;24.77;;
18720;SDS011;9489;50.948;3.114;2023-04-06T09:00:20;28.65;;;24.85;;
18720;SDS011;9489;50.948;3.114;2023-04-06T09:02:46;28.92;;;25.83;;
18720;SDS011;9489;50.948;3.114;2023-04-06T09:05:14;27.45;;;24.40;;
18720;SDS011;9489;50.948;3.114;2023-04-06T09:07:40;27.45;;;24.55;;
18720;SDS011;9489;50.948;3.114;2023-04-06T09:10:06;28.75;;;25.45;;
18720;SDS011;9489;50.948;3.114;2023-04-06T09:12:33;27.70;;;24.80;;
18720;SDS011;9489;50.948;3.114;2023-04-06T09:14:59;27.23;;;24.42;;
18720;SDS011;9489;50.948;3.114;2023-04-06T09:17:27;28.80;;;25.65;;
18720;SDS011;9489;50.948;3.114;2023-04-06T09:19:54;28.00;;;24.98;;
18720;SDS011;9489;50.948;3.114;2023-04-06T09:22:21;27.00;;;24.17;;
18720;SDS011;9489;50.948;3.114;2023-04-06T09:24:50;29.02;;;25.35;;
18720;SDS011;9489;50.948;3.114;2023-04-06T09:27:17;26.70;;;23.83;;
18720;SDS011;9489;50.948;3.114;2023-04-06T09:29:43;26.27;;;23.48;;
18720;SDS011;9489;50.948;3.114;2023-04-06T09:32:10;27.02;;;24.33;;
18720;SDS011;9489;50.948;3.114;2023-04-06T09:34:37;27.35;;;23.85;;
18720;SDS011;9489;50.948;3.114;2023-04-06T09:37:15;27.00;;;24.20;;
18720;SDS011;9489;50.948;3.114;2023-04-06T09:39:42;25.77;;;23.05;;
18720;SDS011;9489;50.948;3.114;2023-04-06T09:42:09;25.92;;;23.33;;
18720;SDS011;9489;50.948;3.114;2023-04-06T09:44:35;24.42;;;22.00;;
18720;SDS011;9489;50.948;3.114;2023-04-06T09:47:01;24.98;;;22.50;;
18720;SDS011;9489;50.948;3.114;2023-04-06T09:49:31;25.52;;;22.90;;
18720;SDS011;9489;50.948;3.114;2023-04-06T09:52:07;24.77;;;22.27;;
18720;SDS011;9489;50.948;3.114;2023-04-06T09:54:36;23.85;;;21.63;;
18720;SDS011;9489;50.948;3.114;2023-04-06T10:05:37;21.95;;;19.75;;
18720;SDS011;9489;50.948;3.114;2023-04-06T10:08:08;23.48;;;21.13;;
18720;SDS011;9489;50.948;3.114;2023-04-06T10:10:35;22.85;;;20.50;;
18720;SDS011;9489;50.948;3.114;2023-04-06T10:13:02;22.95;;;20.73;;
18720;SDS011;9489;50.948;3.114;2023-04-06T10:15:29;20.63;;;18.70;;
18720;SDS011;9489;50.948;3.114;2023-04-06T10:17:55;22.27;;;20.13;;
18720;SDS011;9489;50.948;3.114;2023-04-06T10:23:05;20.33;;;18.33;;
18720;SDS011;9489;50.948;3.114;2023-04-06T10:25:32;21.38;;;19.17;;
18720;SDS011;9489;50.948;3.114;2023-04-06T10:27:58;22.15;;;19.95;;
18720;SDS011;9489;50.948;3.114;2023-04-06T10:30:29;21.75;;;19.83;;
18720;SDS011;9489;50.948;3.114;2023-04-06T10:32:56;23.60;;;21.33;;
18720;SDS011;9489;50.948;3.114;2023-04-06T10:35:21;23.98;;;21.55;;
18720;SDS011;9489;50.948;3.114;2023-04-06T10:37:49;25.38;;;22.85;;
18720;SDS011;9489;50.948;3.114;2023-04-06T10:40:25;25.92;;;23.42;;
18720;SDS011;9489;50.948;3.114;2023-04-06T10:42:55;27.05;;;24.35;;
18720;SDS011;9489;50.948;3.114;2023-04-06T10:45:31;26.85;;;24.15;;
18720;SDS011;9489;50.948;3.114;2023-04-06T10:47:57;26.50;;;23.85;;
18720;SDS011;9489;50.948;3.114;2023-04-06T10:50:23;27.55;;;24.88;;
18720;SDS011;9489;50.948;3.114;2023-04-06T10:52:58;26.75;;;23.98;;
18720;SDS011;9489;50.948;3.114;2023-04-06T10:55:26;26.63;;;23.83;;
18720;SDS011;9489;50.948;3.114;2023-04-06T10:57:53;26.77;;;24.05;;
18720;SDS011;9489;50.948;3.114;2023-04-06T11:00:19;27.05;;;24.55;;
18720;SDS011;9489;50.948;3.114;2023-04-06T11:02:45;26.92;;;24.05;;
18720;SDS011;9489;50.948;3.114;2023-04-06T11:05:11;26.55;;;23.85;;
18720;SDS011;9489;50.948;3.114;2023-04-06T11:07:40;25.92;;;23.35;;
18720;SDS011;9489;50.948;3.114;2023-04-06T11:10:07;24.55;;;22.23;;
18720;SDS011;9489;50.948;3.114;2023-04-06T11:12:33;25.55;;;22.88;;
18720;SDS011;9489;50.948;3.114;2023-04-06T11:15:00;24.30;;;21.98;;
18720;SDS011;9489;50.948;3.114;2023-04-06T11:17:29;23.15;;;20.75;;
18720;SDS011;9489;50.948;3.114;2023-04-06T11:19:56;25.35;;;21.35;;
18720;SDS011;9489;50.948;3.114;2023-04-06T11:22:22;22.65;;;20.42;;
18720;SDS011;9489;50.948;3.114;2023-04-06T11:24:48;21.50;;;19.40;;
18720;SDS011;9489;50.948;3.114;2023-04-06T11:27:17;21.63;;;19.55;;
18720;SDS011;9489;50.948;3.114;2023-04-06T11:29:43;21.98;;;19.77;;
18720;SDS011;9489;50.948;3.114;2023-04-06T11:32:19;22.33;;;20.17;;
18720;SDS011;9489;50.948;3.114;2023-04-06T11:34:46;21.63;;;19.50;;
18720;SDS011;9489;50.948;3.114;2023-04-06T11:37:12;21.88;;;19.63;;
18720;SDS011;9489;50.948;3.114;2023-04-06T11:39:39;21.52;;;19.45;;
18720;SDS011;9489;50.948;3.114;2023-04-06T11:42:22;21.17;;;19.05;;
18720;SDS011;9489;50.948;3.114;2023-04-06T11:44:57;20.45;;;18.55;;
18720;SDS011;9489;50.948;3.114;2023-04-06T11:47:33;19.75;;;17.83;;
18720;SDS011;9489;50.948;3.114;2023-04-06T11:50:10;21.02;;;18.83;;
18720;SDS011;9489;50.948;3.114;2023-04-06T11:52:38;20.58;;;18.67;;
18720;SDS011;9489;50.948;3.114;2023-04-06T11:55:12;19.48;;;17.52;;
18720;SDS011;9489;50.948;3.114;2023-04-06T11:57:42;20.67;;;18.58;;
18720;SDS011;9489;50.948;3.114;2023-04-06T12:00:08;20.52;;;18.52;;
18720;SDS011;9489;50.948;3.114;2023-04-06T12:02:38;17.58;;;15.98;;
18720;SDS011;9489;50.948;3.114;2023-04-06T12:05:04;18.20;;;16.60;;
18720;SDS011;9489;50.948;3.114;2023-04-06T12:07:32;17.48;;;16.02;;
18720;SDS011;9489;50.948;3.114;2023-04-06T12:09:58;15.80;;;14.38;;
18720;SDS011;9489;50.948;3.114;2023-04-06T12:12:24;16.77;;;15.20;;
18720;SDS011;9489;50.948;3.114;2023-04-06T12:14:50;16.70;;;15.10;;
18720;SDS011;9489;50.948;3.114;2023-04-06T12:17:16;16.88;;;15.38;;
18720;SDS011;9489;50.948;3.114;2023-04-06T12:19:42;16.45;;;14.85;;
18720;SDS011;9489;50.948;3.114;2023-04-06T12:22:08;17.30;;;15.80;;
18720;SDS011;9489;50.948;3.114;2023-04-06T12:24:33;17.98;;;16.38;;
18720;SDS011;9489;50.948;3.114;2023-04-06T12:26:59;15.30;;;13.95;;
18720;SDS011;9489;50.948;3.114;2023-04-06T12:29:26;14.75;;;13.38;;
18720;SDS011;9489;50.948;3.114;2023-04-06T12:31:52;15.18;;;13.70;;
18720;SDS011;9489;50.948;3.114;2023-04-06T12:34:18;14.07;;;12.60;;
18720;SDS011;9489;50.948;3.114;2023-04-06T12:36:43;13.50;;;12.20;;
18720;SDS011;9489;50.948;3.114;2023-04-06T12:39:09;12.98;;;11.75;;
18720;SDS011;9489;50.948;3.114;2023-04-06T12:41:36;12.77;;;11.57;;
18720;SDS011;9489;50.948;3.114;2023-04-06T12:44:02;12.88;;;11.57;;
18720;SDS011;9489;50.948;3.114;2023-04-06T12:46:27;12.10;;;10.88;;
18720;SDS011;9489;50.948;3.114;2023-04-06T12:48:55;11.75;;;10.02;;
18720;SDS011;9489;50.948;3.114;2023-04-06T12:51:23;10.98;;;9.93;;
18720;SDS011;9489;50.948;3.114;2023-04-06T12:53:48;12.73;;;10.23;;
18720;SDS011;9489;50.948;3.114;2023-04-06T12:56:15;10.90;;;9.77;;
18720;SDS011;9489;50.948;3.114;2023-04-06T12:58:42;11.70;;;9.27;;
18720;SDS011;9489;50.948;3.114;2023-04-06T13:01:09;14.40;;;8.40;;
18720;SDS011;9489;50.948;3.114;2023-04-06T13:03:37;9.43;;;8.57;;
18720;SDS011;9489;50.948;3.114;2023-04-06T13:06:03;9.43;;;8.18;;
18720;SDS011;9489;50.948;3.114;2023-04-06T13:08:29;11.25;;;7.35;;
18720;SDS011;9489;50.948;3.114;2023-04-06T13:10:55;9.05;;;7.93;;
18720;SDS011;9489;50.948;3.114;2023-04-06T13:13:28;9.13;;;7.72;;
18720;SDS011;9489;50.948;3.114;2023-04-06T13:15:55;9.13;;;7.32;;
18720;SDS011;9489;50.948;3.114;2023-04-06T13:18:26;25.38;;;10.00;;
18720;SDS011;9489;50.948;3.114;2023-04-06T13:20:51;13.88;;;8.07;;
18720;SDS011;9489;50.948;3.114;2023-04-06T13:23:17;11.65;;;7.78;;
18720;SDS011;9489;50.948;3.114;2023-04-06T13:25:42;28.73;;;9.57;;
18720;SDS011;9489;50.948;3.114;2023-04-06T13:28:08;13.90;;;8.10;;
18720;SDS011;9489;50.948;3.114;2023-04-06T13:30:35;10.48;;;8.27;;
18720;SDS011;9489;50.948;3.114;2023-04-06T13:33:01;9.98;;;7.70;;
18720;SDS011;9489;50.948;3.114;2023-04-06T13:35:27;11.07;;;7.68;;
18720;SDS011;9489;50.948;3.114;2023-04-06T13:37:52;11.20;;;6.93;;
18720;SDS011;9489;50.948;3.114;2023-04-06T13:40:18;8.30;;;6.05;;
18720;SDS011;9489;50.948;3.114;2023-04-06T13:42:44;10.48;;;6.43;;
18720;SDS011;9489;50.948;3.114;2023-04-06T13:45:11;11.35;;;7.00;;
18720;SDS011;9489;50.948;3.114;2023-04-06T13:47:36;9.98;;;7.10;;
18720;SDS011;9489;50.948;3.114;2023-04-06T13:50:03;12.65;;;8.20;;
18720;SDS011;9489;50.948;3.114;2023-04-06T13:52:28;11.40;;;9.00;;
18720;SDS011;9489;50.948;3.114;2023-04-06T13:54:54;12.98;;;6.63;;
18720;SDS011;9489;50.948;3.114;2023-04-06T13:57:20;13.60;;;6.20;;
18720;SDS011;9489;50.948;3.114;2023-04-06T13:59:46;15.07;;;5.85;;
18720;SDS011;9489;50.948;3.114;2023-04-06T14:02:12;13.93;;;5.90;;
18720;SDS011;9489;50.948;3.114;2023-04-06T14:04:37;13.10;;;5.18;;
18720;SDS011;9489;50.948;3.114;2023-04-06T14:07:03;12.80;;;5.40;;
18720;SDS011;9489;50.948;3.114;2023-04-06T14:09:32;12.63;;;4.72;;
18720;SDS011;9489;50.948;3.114;2023-04-06T14:11:57;11.98;;;4.25;;
18720;SDS011;9489;50.948;3.114;2023-04-06T14:14:23;13.50;;;3.92;;
18720;SDS011;9489;50.948;3.114;2023-04-06T14:16:49;9.05;;;3.78;;
18720;SDS011;9489;50.948;3.114;2023-04-06T14:19:15;9.80;;;3.63;;
18720;SDS011;9489;50.948;3.114;2023-04-06T14:21:42;9.80;;;3.95;;
18720;SDS011;9489;50.948;3.114;2023-04-06T14:24:09;11.75;;;4.97;;
18720;SDS011;9489;50.948;3.114;2023-04-06T14:26:35;12.15;;;4.35;;
18720;SDS011;9489;50.948;3.114;2023-04-06T14:29:05;14.38;;;5.07;;
18720;SDS011;9489;50.948;3.114;2023-04-06T14:31:31;10.07;;;4.18;;
18720;SDS011;9489;50.948;3.114;2023-04-06T14:33:57;10.93;;;5.18;;
18720;SDS011;9489;50.948;3.114;2023-04-06T14:36:23;11.43;;;4.78;;
18720;SDS011;9489;50.948;3.114;2023-04-06T14:38:51;15.55;;;5.78;;
18720;SDS011;9489;50.948;3.114;2023-04-06T14:41:22;10.80;;;5.28;;
18720;SDS011;9489;50.948;3.114;2023-04-06T14:43:48;12.73;;;5.05;;